Time;durP1;ratioP1;P1;durP2;ratioP2;P2;SDS_P1;SDS_P2;PMS_P1;PMS_P2;Temp;Humidity;BMP_temperature;BMP_pressure;BME280_temperature;BME280_humidity;BME280_pressure;Samples;Min_cycle;Max_cycle;Signal;HPM_P1;HPM_P2
2022/01/03 00:00:25;;;;;;;11.60;2.67;;;10.70;99.90;;;;;;4997220;28;20181;-80
2022/01/03 00:02:57;;;;;;;11.47;2.80;;;10.70;99.90;;;;;;4995482;28;20644;-80
2022/01/03 00:05:22;;;;;;;11.13;2.23;;;10.80;99.90;;;;;;4997150;28;20228;-80
2022/01/03 00:07:48;;;;;;;12.60;2.67;;;10.70;99.90;;;;;;4996965;28;20197;-80
2022/01/03 00:10:16;;;;;;;13.33;2.20;;;10.70;99.90;;;;;;4996430;28;20589;-80
2022/01/03 00:12:42;;;;;;;10.00;2.30;;;10.70;99.90;;;;;;4999869;28;20170;-80
2022/01/03 00:15:11;;;;;;;15.97;2.47;;;10.70;99.90;;;;;;4999187;28;20563;-80
2022/01/03 00:17:37;;;;;;;11.83;2.70;;;10.70;99.90;;;;;;5000646;28;20694;-80
2022/01/03 00:20:05;;;;;;;11.47;2.40;;;10.70;99.90;;;;;;5000718;28;20201;-80
2022/01/03 00:22:42;;;;;;;18.00;2.93;;;10.70;99.90;;;;;;5000104;28;20236;-80
2022/01/03 00:25:16;;;;;;;10.87;2.67;;;10.70;99.90;;;;;;5000612;28;20300;-79
2022/01/03 00:27:57;;;;;;;12.73;2.20;;;10.70;99.90;;;;;;4998711;28;20289;-80
2022/01/03 00:30:24;;;;;;;12.37;2.83;;;10.70;99.90;;;;;;4997467;28;20158;-80
2022/01/03 00:32:51;;;;;;;15.07;2.67;;;10.70;99.90;;;;;;4998053;28;20173;-79
2022/01/03 00:35:18;;;;;;;11.97;2.77;;;10.80;99.90;;;;;;4999352;28;20198;-80
2022/01/03 00:37:45;;;;;;;16.53;2.50;;;10.70;99.90;;;;;;4998609;28;20197;-80
2022/01/03 00:40:16;;;;;;;17.40;3.27;;;10.70;99.90;;;;;;4998707;28;20267;-80
2022/01/03 00:42:43;;;;;;;20.20;2.97;;;10.70;99.90;;;;;;4999967;28;20162;-80
2022/01/03 00:45:09;;;;;;;14.57;2.77;;;10.70;99.90;;;;;;4998199;28;20174;-80
2022/01/03 00:47:35;;;;;;;18.90;3.07;;;10.70;99.90;;;;;;4997190;28;20197;-80
2022/01/03 00:50:07;;;;;;;20.07;3.73;;;10.70;99.90;;;;;;5000478;28;20181;-80
2022/01/03 00:52:32;;;;;;;20.30;3.03;;;10.70;99.90;;;;;;4999571;28;20181;-80
2022/01/03 00:54:58;;;;;;;14.77;2.83;;;10.70;99.90;;;;;;4998125;28;20211;-80
2022/01/03 00:57:46;;;;;;;21.77;3.30;;;10.70;99.90;;;;;;4999784;28;20707;-79
2022/01/03 01:00:12;;;;;;;17.30;3.00;;;10.70;99.90;;;;;;5003586;28;20173;-81
2022/01/03 01:02:43;;;;;;;15.77;3.07;;;10.70;99.90;;;;;;4997865;28;20178;-79
2022/01/03 01:05:09;;;;;;;16.30;2.67;;;10.80;99.90;;;;;;4994269;28;20169;-80
2022/01/03 01:07:38;;;;;;;18.97;3.53;;;10.80;99.90;;;;;;4995707;28;20292;-79
2022/01/03 01:10:05;;;;;;;18.43;3.03;;;10.80;99.90;;;;;;4995614;28;20205;-80
2022/01/03 01:12:31;;;;;;;16.60;3.50;;;10.80;99.90;;;;;;4995294;28;20648;-79
2022/01/03 01:14:58;;;;;;;12.20;3.10;;;10.70;99.90;;;;;;4993945;28;20297;-80
2022/01/03 01:17:26;;;;;;;12.57;2.80;;;10.70;99.90;;;;;;4995209;28;20197;-79
2022/01/03 01:19:53;;;;;;;15.27;3.13;;;10.70;99.90;;;;;;4995701;28;20177;-80
2022/01/03 01:22:22;;;;;;;21.83;3.67;;;10.70;99.90;;;;;;4995431;28;20181;-80
2022/01/03 01:25:09;;;;;;;11.83;2.57;;;10.70;99.90;;;;;;4995901;28;20174;-79
2022/01/03 01:27:50;;;;;;;16.83;3.13;;;10.60;99.90;;;;;;4994881;28;20284;-80
2022/01/03 01:30:21;;;;;;;16.40;3.33;;;10.70;99.90;;;;;;4994609;28;20585;-80
2022/01/03 01:33:01;;;;;;;14.90;3.07;;;10.70;99.90;;;;;;4994966;28;20626;-81
2022/01/03 01:35:35;;;;;;;12.17;3.13;;;10.70;99.90;;;;;;4994644;28;20216;-80
2022/01/03 01:38:02;;;;;;;16.77;3.07;;;10.70;99.90;;;;;;4994040;28;20288;-80
2022/01/03 01:40:28;;;;;;;16.50;3.77;;;10.70;99.90;;;;;;4995426;28;20181;-80
2022/01/03 01:42:55;;;;;;;19.70;3.73;;;10.70;99.90;;;;;;4995443;28;20170;-80
2022/01/03 01:45:25;;;;;;;16.97;3.10;;;10.70;99.90;;;;;;4994944;28;20239;-80
2022/01/03 01:47:57;;;;;;;14.53;3.00;;;10.60;99.90;;;;;;4993661;28;20213;-80
2022/01/03 01:50:26;;;;;;;10.53;2.50;;;10.60;99.90;;;;;;4975840;28;20214;-80
2022/01/03 01:52:56;;;;;;;12.87;2.77;;;10.60;99.90;;;;;;4975361;28;20185;-80
2022/01/03 01:55:22;;;;;;;21.70;3.40;;;10.60;99.90;;;;;;4975520;28;20202;-80
2022/01/03 01:58:03;;;;;;;12.47;3.00;;;10.50;99.90;;;;;;4974013;28;20652;-80
2022/01/03 02:00:30;;;;;;;19.43;2.63;;;10.50;99.90;;;;;;4976029;28;20162;-80
2022/01/03 02:03:06;;;;;;;14.30;3.57;;;10.50;99.90;;;;;;4975499;28;20182;-80
2022/01/03 02:05:47;;;;;;;15.33;2.60;;;10.50;99.90;;;;;;4985572;28;20177;-80
2022/01/03 02:08:14;;;;;;;18.17;3.10;;;10.50;99.90;;;;;;4994580;28;20196;-80
2022/01/03 02:10:50;;;;;;;13.80;3.13;;;10.50;99.90;;;;;;4993564;28;20193;-81
2022/01/03 02:13:21;;;;;;;16.97;3.10;;;10.50;99.90;;;;;;4993328;28;20181;-80
2022/01/03 02:15:56;;;;;;;17.00;3.10;;;10.50;99.90;;;;;;4994509;28;20247;-80
2022/01/03 02:18:23;;;;;;;13.60;2.57;;;10.40;99.90;;;;;;4993399;28;20197;-79
2022/01/03 02:20:48;;;;;;;16.53;3.27;;;10.40;99.90;;;;;;4995012;28;20538;-81
2022/01/03 02:23:14;;;;;;;16.30;3.23;;;10.40;99.90;;;;;;4993510;28;20268;-80
2022/01/03 02:25:40;;;;;;;15.77;2.83;;;10.50;99.90;;;;;;4994816;28;20540;-80
2022/01/03 02:28:05;;;;;;;15.73;3.00;;;10.40;99.90;;;;;;4994239;28;20198;-81
2022/01/03 02:30:32;;;;;;;14.80;2.73;;;10.40;99.90;;;;;;4994261;28;20239;-80
2022/01/03 02:32:58;;;;;;;15.97;3.23;;;10.40;99.90;;;;;;4994914;28;20177;-80
2022/01/03 02:35:23;;;;;;;15.70;3.13;;;10.40;99.90;;;;;;4994354;28;20205;-80
2022/01/03 02:37:50;;;;;;;13.67;2.97;;;10.40;99.90;;;;;;4993203;28;20698;-80
2022/01/03 02:40:15;;;;;;;18.80;2.93;;;10.40;99.90;;;;;;4998243;28;20174;-79
2022/01/03 02:42:42;;;;;;;10.33;2.53;;;10.40;99.90;;;;;;4997582;28;20579;-79
2022/01/03 02:45:10;;;;;;;14.20;2.87;;;10.50;99.90;;;;;;4999353;28;20660;-81
2022/01/03 02:47:36;;;;;;;15.63;2.53;;;10.40;99.90;;;;;;4997962;28;20761;-79
2022/01/03 02:50:04;;;;;;;11.43;2.70;;;10.40;99.90;;;;;;4999368;28;20216;-80
2022/01/03 02:52:29;;;;;;;11.37;2.33;;;10.50;99.90;;;;;;4997912;28;20273;-79
2022/01/03 02:54:56;;;;;;;13.07;2.80;;;10.50;99.90;;;;;;4999612;28;20213;-80
2022/01/03 02:57:23;;;;;;;16.43;3.03;;;10.50;99.90;;;;;;5028326;23;20205;-93
2022/01/03 02:59:56;;;;;;;20.27;3.17;;;10.50;99.90;;;;;;5073538;28;20256;-94
2022/01/03 03:02:24;;;;;;;13.17;2.70;;;11.00;99.90;;;;;;5054240;28;20176;-95
2022/01/03 03:04:55;;;;;;;19.20;3.03;;;10.90;99.90;;;;;;5054616;28;20238;-95
2022/01/03 03:07:25;;;;;;;7.73;2.17;;;10.40;99.90;;;;;;5051057;28;20177;-95
2022/01/03 03:09:51;;;;;;;10.10;2.43;;;10.30;99.90;;;;;;5053308;28;20201;-95
2022/01/03 03:12:17;;;;;;;15.47;2.73;;;10.30;99.90;;;;;;5054834;28;20649;-95
2022/01/03 03:14:43;;;;;;;14.57;3.20;;;10.30;99.90;;;;;;5058511;28;20192;-95
2022/01/03 03:17:08;;;;;;;14.63;2.60;;;10.30;99.90;;;;;;5058510;28;20242;-95
2022/01/03 03:19:58;;;;;;;12.10;2.57;;;10.30;99.90;;;;;;5056712;28;20184;-95
2022/01/03 03:22:26;;;;;;;13.27;2.30;;;10.30;99.90;;;;;;5055647;28;20255;-95
2022/01/03 03:24:59;;;;;;;9.90;2.23;;;10.30;99.90;;;;;;5054287;28;20177;-95
2022/01/03 03:27:25;;;;;;;9.60;2.27;;;10.20;99.90;;;;;;5051450;28;20176;-95
2022/01/03 03:29:51;;;;;;;10.03;2.13;;;10.20;99.90;;;;;;5054853;28;20269;-94
2022/01/03 03:32:18;;;;;;;13.03;2.60;;;10.10;99.90;;;;;;5052763;28;20176;-95
2022/01/03 03:34:46;;;;;;;15.30;3.10;;;10.20;99.90;;;;;;5055971;28;20188;-94
2022/01/03 03:37:12;;;;;;;14.30;2.67;;;11.20;99.90;;;;;;5061268;28;20156;-94
2022/01/03 03:39:39;;;;;;;19.00;2.90;;;10.70;99.90;;;;;;5060708;28;20176;-94
2022/01/03 03:42:06;;;;;;;16.90;3.13;;;10.10;99.90;;;;;;5033928;22;20228;-80
2022/01/03 03:44:32;;;;;;;12.77;1.97;;;10.10;99.90;;;;;;5018278;28;20169;-81
2022/01/03 03:46:58;;;;;;;17.70;2.40;;;10.10;99.90;;;;;;5017159;28;20216;-80
2022/01/03 03:49:23;;;;;;;15.87;2.60;;;10.10;99.90;;;;;;5018043;28;20201;-80
2022/01/03 03:51:49;;;;;;;19.53;2.53;;;10.20;99.90;;;;;;5016861;28;20252;-80
2022/01/03 03:54:15;;;;;;;12.27;2.33;;;10.20;99.90;;;;;;5017736;28;20182;-81
2022/01/03 03:56:40;;;;;;;17.70;3.20;;;10.10;99.90;;;;;;5018791;28;20189;-80
2022/01/03 03:59:06;;;;;;;13.67;2.37;;;10.00;99.90;;;;;;5016599;28;20193;-80
2022/01/03 04:01:31;;;;;;;20.10;4.03;;;10.00;99.90;;;;;;5018264;28;20177;-80
2022/01/03 04:03:57;;;;;;;14.77;3.00;;;9.90;99.90;;;;;;5018617;28;20172;-80
2022/01/03 04:06:22;;;;;;;11.43;2.27;;;9.90;99.90;;;;;;5017993;28;20183;-81
2022/01/03 04:08:48;;;;;;;15.87;3.23;;;9.80;99.90;;;;;;5016336;28;20199;-80
2022/01/03 04:11:13;;;;;;;17.53;2.40;;;9.80;99.90;;;;;;5017586;28;20231;-80
2022/01/03 04:13:40;;;;;;;15.17;2.67;;;9.70;99.90;;;;;;5015622;28;20184;-80
2022/01/03 04:16:06;;;;;;;14.70;2.33;;;9.70;99.90;;;;;;5016245;28;20203;-80
2022/01/03 04:18:32;;;;;;;13.03;2.60;;;9.80;99.90;;;;;;5018373;28;20675;-80
2022/01/03 04:20:58;;;;;;;17.67;2.30;;;9.80;99.90;;;;;;5016865;28;20260;-80
2022/01/03 04:23:24;;;;;;;12.80;2.40;;;9.70;99.90;;;;;;5015628;28;20188;-80
2022/01/03 04:25:51;;;;;;;18.33;3.30;;;9.70;99.90;;;;;;5016141;28;20176;-80
2022/01/03 04:28:18;;;;;;;11.67;2.37;;;9.70;99.90;;;;;;5016021;28;20571;-80
2022/01/03 04:30:44;;;;;;;14.63;2.37;;;9.70;99.90;;;;;;5016713;28;20188;-80
2022/01/03 04:33:10;;;;;;;11.30;2.47;;;9.60;99.90;;;;;;5017603;28;20184;-80
2022/01/03 04:35:35;;;;;;;17.87;2.60;;;9.70;99.90;;;;;;5017162;28;20204;-80
2022/01/03 04:38:01;;;;;;;11.03;2.10;;;9.70;99.90;;;;;;5015591;28;20243;-80
2022/01/03 04:40:27;;;;;;;18.13;2.93;;;9.70;99.90;;;;;;5016454;28;20180;-80
2022/01/03 04:42:52;;;;;;;14.10;2.50;;;9.60;99.90;;;;;;5016142;28;20617;-80
2022/01/03 04:45:18;;;;;;;18.83;3.53;;;9.60;99.90;;;;;;5016375;28;20204;-81
2022/01/03 04:47:45;;;;;;;13.60;2.43;;;9.60;99.90;;;;;;5017226;28;20224;-80
2022/01/03 04:50:10;;;;;;;19.10;3.00;;;9.60;99.90;;;;;;5018146;28;20233;-80
2022/01/03 04:52:36;;;;;;;15.20;2.67;;;9.60;99.90;;;;;;5018377;28;20268;-80
2022/01/03 04:55:02;;;;;;;11.00;2.10;;;9.60;99.90;;;;;;5017151;28;20248;-80
2022/01/03 04:57:28;;;;;;;11.43;2.70;;;9.70;99.90;;;;;;5015789;28;20204;-80
2022/01/03 04:59:53;;;;;;;13.87;3.03;;;9.70;99.90;;;;;;5017725;28;20181;-80
2022/01/03 05:02:19;;;;;;;11.63;2.87;;;9.70;99.90;;;;;;5015119;28;20185;-81
2022/01/03 05:04:44;;;;;;;19.07;2.97;;;9.70;99.90;;;;;;5017613;28;20184;-80
2022/01/03 05:07:10;;;;;;;9.03;1.97;;;9.60;99.90;;;;;;5016122;28;20176;-81
2022/01/03 05:09:36;;;;;;;18.73;2.57;;;9.60;99.90;;;;;;5016618;28;20263;-81
2022/01/03 05:12:02;;;;;;;14.93;3.00;;;9.70;99.90;;;;;;5018814;28;20181;-80
2022/01/03 05:14:28;;;;;;;11.43;2.77;;;9.70;99.90;;;;;;5026208;28;20647;-80
2022/01/03 05:16:53;;;;;;;16.00;2.63;;;9.70;99.90;;;;;;5032528;28;20215;-80
2022/01/03 05:19:19;;;;;;;15.27;3.10;;;9.70;99.90;;;;;;5035191;28;20197;-79
2022/01/03 05:21:46;;;;;;;12.80;2.83;;;9.70;99.90;;;;;;5034734;28;20173;-80
2022/01/03 05:24:13;;;;;;;14.57;2.77;;;9.70;99.90;;;;;;5018441;28;20205;-80
2022/01/03 05:26:38;;;;;;;16.93;2.73;;;9.80;99.90;;;;;;5014764;28;20180;-80
2022/01/03 05:29:04;;;;;;;17.23;2.73;;;9.80;99.90;;;;;;5014534;28;20236;-80
2022/01/03 05:31:30;;;;;;;15.37;2.50;;;9.90;99.90;;;;;;5015378;28;20705;-80
2022/01/03 05:33:55;;;;;;;14.37;2.30;;;9.90;99.90;;;;;;5015762;28;20187;-80
2022/01/03 05:36:21;;;;;;;14.17;3.70;;;9.90;99.90;;;;;;5014547;28;20204;-80
2022/01/03 05:38:47;;;;;;;17.97;2.90;;;9.90;99.90;;;;;;5014746;28;20667;-80
2022/01/03 05:41:13;;;;;;;12.93;2.40;;;9.90;99.90;;;;;;5015542;28;20602;-80
2022/01/03 05:43:38;;;;;;;13.27;2.20;;;9.90;99.90;;;;;;5015133;28;20189;-80
2022/01/03 05:46:04;;;;;;;18.30;3.30;;;9.90;99.90;;;;;;5015667;28;20177;-80
2022/01/03 05:48:30;;;;;;;10.27;2.93;;;9.90;99.90;;;;;;5013833;28;20200;-80
2022/01/03 05:50:55;;;;;;;13.27;2.37;;;9.90;99.90;;;;;;5014998;28;20187;-80
2022/01/03 05:53:21;;;;;;;14.17;2.30;;;9.90;99.90;;;;;;5013905;28;20563;-80
2022/01/03 05:55:46;;;;;;;11.37;2.43;;;9.90;99.90;;;;;;5014179;28;20580;-80
2022/01/03 05:58:13;;;;;;;23.03;3.37;;;9.90;99.90;;;;;;5013321;28;20219;-80
2022/01/03 06:00:39;;;;;;;11.67;2.90;;;9.90;99.90;;;;;;5015354;28;20175;-80
2022/01/03 06:03:05;;;;;;;15.47;2.53;;;9.90;99.90;;;;;;5013956;28;20604;-80
2022/01/03 06:08:02;;;;;;;15.63;2.63;;;9.70;99.90;;;;;;5015737;28;20197;-80
2022/01/03 06:10:28;;;;;;;13.57;2.80;;;9.80;99.90;;;;;;5015971;28;20180;-80
2022/01/03 06:12:54;;;;;;;11.13;2.20;;;9.70;99.90;;;;;;5015126;28;20173;-80
2022/01/03 06:15:24;;;;;;;14.73;2.17;;;9.70;99.90;;;;;;5019594;28;20254;-80
2022/01/03 06:17:50;;;;;;;12.00;2.70;;;9.70;99.90;;;;;;5018113;28;20199;-81
2022/01/03 06:20:17;;;;;;;14.37;2.53;;;9.60;99.90;;;;;;5019259;28;20725;-80
2022/01/03 06:22:42;;;;;;;15.47;2.37;;;9.60;99.90;;;;;;5019188;28;20197;-80
2022/01/03 06:25:10;;;;;;;13.50;2.33;;;9.60;99.90;;;;;;5017595;28;20617;-80
2022/01/03 06:27:37;;;;;;;11.57;2.57;;;9.60;99.90;;;;;;5018484;28;20682;-80
2022/01/03 06:30:04;;;;;;;12.57;2.43;;;9.70;99.90;;;;;;5017120;28;20711;-80
2022/01/03 06:32:30;;;;;;;20.03;2.87;;;9.80;99.90;;;;;;5017548;28;20701;-79
2022/01/03 06:34:56;;;;;;;15.47;2.57;;;9.80;99.90;;;;;;5017024;28;20173;-80
2022/01/03 06:37:21;;;;;;;18.40;3.57;;;9.80;99.90;;;;;;5016875;28;20234;-80
2022/01/03 06:39:47;;;;;;;16.37;2.87;;;9.80;99.90;;;;;;5018248;28;20165;-80
2022/01/03 06:42:12;;;;;;;15.33;3.43;;;9.90;99.90;;;;;;5018392;28;20196;-80
2022/01/03 06:44:38;;;;;;;15.00;2.60;;;9.90;99.90;;;;;;5018432;28;20184;-80
2022/01/03 06:47:04;;;;;;;13.33;2.53;;;9.80;99.90;;;;;;5018577;28;20173;-80
2022/01/03 06:49:29;;;;;;;13.17;2.60;;;9.80;99.90;;;;;;5017216;28;20284;-79
2022/01/03 06:51:55;;;;;;;11.53;2.70;;;9.80;99.90;;;;;;5019286;28;20671;-80
2022/01/03 06:54:20;;;;;;;13.63;2.77;;;9.80;99.90;;;;;;5017019;28;20231;-80
2022/01/03 06:56:46;;;;;;;16.40;2.70;;;9.80;99.90;;;;;;5018803;28;20193;-80
2022/01/03 06:59:12;;;;;;;20.37;2.87;;;9.80;99.90;;;;;;5017307;28;20200;-80
2022/01/03 07:01:38;;;;;;;19.17;3.03;;;9.90;99.90;;;;;;5016851;28;20181;-80
2022/01/03 07:04:03;;;;;;;17.53;2.93;;;9.90;99.90;;;;;;5018975;28;20169;-80
2022/01/03 07:06:30;;;;;;;14.23;2.47;;;9.90;99.90;;;;;;5017499;28;20184;-80
2022/01/03 07:08:56;;;;;;;15.23;3.43;;;9.90;99.90;;;;;;5017518;28;20265;-80
2022/01/03 07:11:21;;;;;;;12.00;2.43;;;10.00;99.90;;;;;;5018904;28;20220;-79
2022/01/03 07:13:51;;;;;;;13.33;2.50;;;10.10;99.90;;;;;;5019321;28;20173;-80
2022/01/03 07:19:11;;;;;;;15.77;2.77;;;10.00;99.90;;;;;;5000244;28;20209;-80
2022/01/03 07:21:37;;;;;;;16.17;2.47;;;10.00;99.90;;;;;;5019294;28;20154;-80
2022/01/03 07:24:04;;;;;;;13.53;2.60;;;10.00;99.90;;;;;;5018897;28;20669;-80
2022/01/03 07:26:29;;;;;;;12.33;2.37;;;10.00;99.90;;;;;;5019151;28;20177;-80
2022/01/03 07:28:55;;;;;;;9.73;2.30;;;10.00;99.90;;;;;;5018359;28;20219;-80
2022/01/03 07:31:21;;;;;;;10.30;2.60;;;9.90;99.90;;;;;;5018714;28;20546;-80
2022/01/03 07:33:47;;;;;;;10.20;2.93;;;9.90;99.90;;;;;;5017933;28;20655;-80
2022/01/03 07:36:13;;;;;;;12.50;2.77;;;9.90;99.90;;;;;;5018222;28;20196;-80
2022/01/03 07:38:39;;;;;;;13.00;2.30;;;9.90;99.90;;;;;;5018345;28;20242;-79
2022/01/03 07:41:05;;;;;;;13.30;2.47;;;9.90;99.90;;;;;;5016380;28;20272;-79
2022/01/03 07:43:31;;;;;;;12.80;2.83;;;9.90;99.90;;;;;;5017486;28;20188;-80
2022/01/03 07:45:57;;;;;;;14.13;2.43;;;9.90;99.90;;;;;;5017889;28;20267;-80
2022/01/03 07:48:23;;;;;;;18.10;2.90;;;10.00;99.90;;;;;;5017716;28;20201;-80
2022/01/03 07:50:49;;;;;;;13.10;2.70;;;10.00;99.90;;;;;;5017741;28;20284;-80
2022/01/03 07:53:14;;;;;;;12.00;2.47;;;10.00;99.90;;;;;;5017222;28;20169;-80
2022/01/03 07:55:40;;;;;;;15.07;2.27;;;9.90;99.90;;;;;;5016691;28;20547;-80
2022/01/03 07:58:06;;;;;;;15.63;2.73;;;10.00;99.90;;;;;;5016802;28;20195;-80
2022/01/03 08:00:31;;;;;;;12.07;2.13;;;10.00;99.90;;;;;;5016211;28;20287;-81
2022/01/03 08:02:57;;;;;;;15.43;2.77;;;10.10;99.90;;;;;;5015694;28;20677;-81
2022/01/03 08:05:22;;;;;;;20.23;2.77;;;10.00;99.90;;;;;;5017138;28;20671;-81
2022/01/03 08:07:48;;;;;;;13.83;2.67;;;10.00;99.90;;;;;;5015478;28;20552;-81
2022/01/03 08:10:14;;;;;;;9.77;2.63;;;9.90;99.90;;;;;;5017079;28;20263;-81
2022/01/03 08:12:41;;;;;;;15.73;3.33;;;9.90;99.90;;;;;;5017036;28;20219;-80
2022/01/03 08:15:08;;;;;;;12.87;2.30;;;10.00;99.90;;;;;;5015565;28;20173;-81
2022/01/03 08:17:34;;;;;;;13.73;2.90;;;9.90;99.90;;;;;;5015924;28;20197;-81
2022/01/03 08:19:59;;;;;;;19.20;2.80;;;9.90;99.90;;;;;;5017728;28;20165;-81
2022/01/03 08:22:25;;;;;;;11.67;2.13;;;9.90;99.90;;;;;;5017876;28;20216;-81
2022/01/03 08:24:50;;;;;;;18.47;3.40;;;10.00;99.90;;;;;;5017663;28;20255;-81
2022/01/03 08:27:16;;;;;;;16.23;3.27;;;10.00;99.90;;;;;;5015995;28;20738;-81
2022/01/03 08:29:42;;;;;;;14.63;2.97;;;10.00;99.90;;;;;;5016262;28;20222;-81
2022/01/03 08:32:07;;;;;;;15.80;2.57;;;10.00;99.90;;;;;;5016109;28;20184;-80
2022/01/03 08:34:33;;;;;;;16.50;2.97;;;10.10;99.90;;;;;;5018210;28;20173;-80
2022/01/03 08:37:00;;;;;;;15.10;2.83;;;10.10;99.90;;;;;;5017400;28;20200;-81
2022/01/03 08:39:26;;;;;;;13.30;3.07;;;10.10;99.90;;;;;;5016581;28;20729;-80
2022/01/03 08:41:51;;;;;;;18.60;2.47;;;10.10;99.90;;;;;;5016411;28;20239;-80
2022/01/03 08:44:18;;;;;;;14.47;2.67;;;10.10;99.90;;;;;;5016393;28;20181;-80
2022/01/03 08:46:43;;;;;;;16.47;3.37;;;10.20;99.90;;;;;;5016252;28;20220;-80
2022/01/03 08:49:09;;;;;;;13.30;2.63;;;10.20;99.90;;;;;;5015566;28;20609;-81
2022/01/03 08:51:34;;;;;;;18.70;3.13;;;10.10;99.90;;;;;;5016326;28;20177;-79
2022/01/03 08:54:00;;;;;;;19.27;3.00;;;10.10;99.90;;;;;;5016350;28;20180;-79
2022/01/03 08:56:25;;;;;;;15.87;2.30;;;10.10;99.90;;;;;;5016262;28;20250;-79
2022/01/03 08:58:52;;;;;;;16.67;3.67;;;10.10;99.90;;;;;;5014867;28;20193;-80
2022/01/03 09:01:18;;;;;;;14.03;2.93;;;10.10;99.90;;;;;;5015385;28;20173;-80
2022/01/03 09:03:44;;;;;;;12.07;2.57;;;10.10;99.90;;;;;;5030474;23;20607;-78
2022/01/03 09:06:09;;;;;;;15.20;2.97;;;10.10;99.90;;;;;;5014445;28;20212;-78
2022/01/03 09:08:35;;;;;;;14.37;3.23;;;10.10;99.90;;;;;;5015957;28;20172;-78
2022/01/03 09:11:01;;;;;;;18.43;4.00;;;10.10;99.90;;;;;;5015377;28;20173;-78
2022/01/03 09:13:26;;;;;;;17.73;3.17;;;10.10;99.90;;;;;;5015368;28;20235;-79
2022/01/03 09:15:52;;;;;;;13.77;2.93;;;10.20;99.90;;;;;;5014691;28;20212;-78
2022/01/03 09:18:21;;;;;;;16.47;3.73;;;10.30;99.90;;;;;;5016068;28;20246;-79
2022/01/03 09:20:48;;;;;;;14.17;4.23;;;10.30;99.90;;;;;;5016545;28;20264;-79
2022/01/03 09:23:18;;;;;;;15.13;3.17;;;10.30;99.90;;;;;;5017432;28;20200;-78
2022/01/03 09:28:49;;;;;;;12.30;2.57;;;10.30;99.90;;;;;;5018943;28;20208;-79
2022/01/03 09:31:47;;;;;;;12.93;2.60;;;10.40;99.90;;;;;;5019624;28;20161;-79
2022/01/03 09:34:12;;;;;;;13.83;3.07;;;10.40;99.90;;;;;;4984858;28;20263;-79
2022/01/03 09:36:38;;;;;;;19.77;3.77;;;10.40;99.90;;;;;;5017109;28;20204;-79
2022/01/03 09:39:05;;;;;;;13.43;2.57;;;10.40;99.90;;;;;;5017571;28;20688;-79
2022/01/03 09:41:32;;;;;;;17.27;3.03;;;10.50;99.90;;;;;;5018211;28;20553;-79
2022/01/03 09:44:11;;;;;;;12.80;2.73;;;10.50;99.90;;;;;;5016677;28;20196;-79
2022/01/03 09:46:38;;;;;;;11.87;2.50;;;10.50;99.90;;;;;;5019430;28;20184;-79
2022/01/03 09:49:07;;;;;;;21.90;3.03;;;10.50;99.90;;;;;;5017256;28;20561;-79
2022/01/03 09:51:33;;;;;;;15.23;2.77;;;10.50;99.90;;;;;;5019076;28;20184;-79
2022/01/03 09:54:17;;;;;;;19.20;2.77;;;10.60;99.90;;;;;;5017478;28;20679;-79
2022/01/03 09:56:43;;;;;;;10.40;3.17;;;10.60;99.90;;;;;;5019371;28;20181;-79
2022/01/03 09:59:09;;;;;;;18.40;3.13;;;10.60;99.90;;;;;;5018707;28;20550;-79
2022/01/03 10:01:36;;;;;;;10.67;2.90;;;10.60;99.90;;;;;;5017555;28;20177;-78
2022/01/03 10:04:02;;;;;;;11.33;2.60;;;10.70;99.90;;;;;;5016889;28;20217;-78
2022/01/03 10:06:28;;;;;;;17.03;2.70;;;10.70;99.90;;;;;;5014510;28;20205;-78
2022/01/03 10:08:55;;;;;;;16.47;3.50;;;10.70;99.90;;;;;;5015170;28;20177;-78
2022/01/03 10:11:22;;;;;;;10.67;2.43;;;10.80;99.90;;;;;;5015046;28;20647;-79
2022/01/03 10:13:48;;;;;;;15.13;2.83;;;10.80;99.90;;;;;;5018762;28;20200;-78
2022/01/03 10:16:15;;;;;;;11.77;2.70;;;10.80;99.90;;;;;;5018612;28;20212;-78
2022/01/03 10:18:40;;;;;;;11.77;2.57;;;10.90;99.90;;;;;;5017131;28;20177;-79
2022/01/03 10:21:07;;;;;;;11.37;2.37;;;10.90;99.90;;;;;;5018546;28;20180;-79
2022/01/03 10:23:34;;;;;;;13.30;2.70;;;10.90;99.90;;;;;;5018678;28;20583;-78
2022/01/03 10:26:20;;;;;;;12.00;2.30;;;11.00;99.90;;;;;;5019317;28;20185;-78
2022/01/03 10:28:45;;;;;;;12.60;3.00;;;10.90;99.90;;;;;;5018715;28;20165;-78
2022/01/03 10:31:20;;;;;;;12.07;2.60;;;10.90;99.90;;;;;;5017381;28;20181;-78
2022/01/03 10:33:47;;;;;;;9.97;2.30;;;10.90;99.90;;;;;;5017667;28;20203;-78
2022/01/03 10:36:34;;;;;;;14.73;2.50;;;10.90;99.90;;;;;;5019948;28;20269;-79
2022/01/03 10:39:17;;;;;;;12.43;2.37;;;10.90;99.90;;;;;;5016028;28;20180;-79
2022/01/03 10:41:44;;;;;;;9.00;2.77;;;10.90;99.90;;;;;;5018581;28;20169;-79
2022/01/03 10:44:10;;;;;;;9.10;2.63;;;11.00;99.90;;;;;;5020063;28;20189;-79
2022/01/03 10:46:38;;;;;;;16.17;3.20;;;11.00;99.90;;;;;;5020820;28;20188;-79
2022/01/03 10:49:08;;;;;;;18.77;3.23;;;11.00;99.90;;;;;;5019987;28;20181;-79
2022/01/03 10:51:34;;;;;;;15.97;2.97;;;11.00;99.90;;;;;;5019219;28;20686;-79
2022/01/03 10:53:59;;;;;;;21.70;3.80;;;11.10;99.90;;;;;;5020222;28;20201;-79
2022/01/03 10:56:33;;;;;;;18.67;3.17;;;11.10;99.90;;;;;;5018691;28;20201;-78
2022/01/03 10:59:18;;;;;;;15.97;2.87;;;11.20;99.90;;;;;;5018402;28;20679;-78
2022/01/03 11:01:46;;;;;;;17.67;2.70;;;11.30;99.90;;;;;;5021863;28;20304;-78
2022/01/03 11:04:50;;;;;;;15.77;2.63;;;11.30;99.90;;;;;;5022225;28;20201;-78
2022/01/03 11:13:09;;;;;;;13.20;2.70;;;11.40;99.90;;;;;;5023384;28;20204;-80
2022/01/03 11:15:36;;;;;;;11.90;2.90;;;11.40;99.90;;;;;;5021491;28;20211;-80
2022/01/03 11:18:14;;;;;;;16.60;2.50;;;11.50;99.90;;;;;;5022316;28;20232;-80
2022/01/03 11:20:41;;;;;;;13.53;2.80;;;11.50;99.90;;;;;;5022174;28;20184;-81
2022/01/03 11:23:07;;;;;;;15.20;2.83;;;11.50;99.90;;;;;;5021584;28;20295;-79
2022/01/03 11:25:34;;;;;;;15.97;3.00;;;11.60;99.90;;;;;;5021387;28;20622;-80
2022/01/03 11:28:02;;;;;;;17.27;3.10;;;11.60;99.90;;;;;;5021373;28;20284;-80
2022/01/03 11:30:29;;;;;;;15.03;3.23;;;11.60;99.90;;;;;;5021348;28;20191;-80
2022/01/03 11:32:56;;;;;;;15.40;2.67;;;11.60;99.90;;;;;;5021258;28;20201;-80
2022/01/03 11:35:22;;;;;;;13.03;2.87;;;11.60;99.90;;;;;;5021514;28;20224;-80
2022/01/03 11:37:48;;;;;;;14.93;2.43;;;11.60;99.90;;;;;;5020473;28;20647;-80
2022/01/03 11:40:16;;;;;;;9.53;2.20;;;11.60;99.90;;;;;;5021724;28;20295;-81
2022/01/03 11:42:44;;;;;;;20.63;3.47;;;11.60;99.90;;;;;;5021623;28;20271;-80
2022/01/03 11:45:11;;;;;;;15.93;2.87;;;11.60;99.90;;;;;;5023072;28;20555;-80
2022/01/03 11:47:37;;;;;;;16.07;2.83;;;11.60;99.90;;;;;;5020273;28;20243;-80
2022/01/03 11:50:05;;;;;;;17.80;2.27;;;11.60;99.90;;;;;;5021988;28;20173;-80
2022/01/03 11:52:35;;;;;;;12.77;2.57;;;11.70;99.90;;;;;;5021694;28;20603;-80
2022/01/03 11:55:03;;;;;;;14.27;2.83;;;11.70;99.90;;;;;;5022263;28;20173;-80
2022/01/03 12:05:59;;;;;;;8.37;1.90;;;11.70;99.90;;;;;;5020214;28;20208;-81
2022/01/03 12:08:35;;;;;;;14.37;2.03;;;11.70;99.90;;;;;;5019066;28;20199;-81
2022/01/03 12:11:15;;;;;;;12.00;2.50;;;11.70;99.90;;;;;;5019225;28;20708;-81
2022/01/03 12:13:58;;;;;;;10.43;2.43;;;11.70;99.90;;;;;;5019561;28;20711;-81
2022/01/03 12:16:44;;;;;;;7.80;2.67;;;11.70;99.90;;;;;;5020634;28;20663;-81
2022/01/03 12:19:13;;;;;;;8.73;1.83;;;11.70;99.90;;;;;;5020448;28;20239;-81
2022/01/03 12:21:50;;;;;;;11.63;2.70;;;11.60;99.90;;;;;;5020550;28;20174;-80
2022/01/03 12:24:44;;;;;;;13.13;2.80;;;11.50;99.90;;;;;;5018974;28;20716;-81
2022/01/03 12:27:12;;;;;;;11.23;2.43;;;11.50;99.90;;;;;;5016072;28;20192;-81
2022/01/03 12:29:56;;;;;;;8.03;1.80;;;11.50;99.90;;;;;;5019262;28;20199;-81
2022/01/03 12:32:31;;;;;;;10.20;2.43;;;11.40;99.90;;;;;;5020751;28;20172;-83
2022/01/03 12:35:12;;;;;;;15.07;2.90;;;11.30;99.90;;;;;;5022040;28;20509;-83
2022/01/03 12:37:47;;;;;;;13.43;2.30;;;11.20;99.90;;;;;;5021169;28;20184;-79
2022/01/03 12:40:19;;;;;;;13.60;2.53;;;11.10;99.90;;;;;;5022034;28;20156;-79
2022/01/03 12:42:51;;;;;;;12.13;2.57;;;11.00;99.90;;;;;;5028659;28;20189;-79
2022/01/03 12:45:29;;;;;;;12.03;2.80;;;10.90;99.90;;;;;;5034582;28;20189;-79
2022/01/03 12:48:10;;;;;;;11.27;2.67;;;10.90;99.90;;;;;;5023504;28;20290;-79
2022/01/03 12:50:51;;;;;;;10.80;2.57;;;10.90;99.90;;;;;;5016262;28;20161;-79
2022/01/03 12:53:31;;;;;;;12.90;3.03;;;10.80;99.90;;;;;;5015567;28;20212;-79
2022/01/03 12:56:19;;;;;;;10.63;2.20;;;10.80;99.90;;;;;;5016471;28;20220;-79
2022/01/03 12:58:50;;;;;;;15.37;2.87;;;10.80;99.90;;;;;;5016633;28;20180;-79
2022/01/03 13:01:25;;;;;;;6.20;2.13;;;10.80;99.90;;;;;;5015124;28;20668;-79
2022/01/03 13:03:59;;;;;;;15.37;2.63;;;10.70;99.90;;;;;;5015429;28;20581;-79
2022/01/03 13:06:24;;;;;;;9.50;2.30;;;10.70;99.90;;;;;;5015159;28;20177;-80
2022/01/03 13:08:56;;;;;;;9.47;1.87;;;10.70;99.90;;;;;;5015890;28;20546;-79